sensor_id;sensor_type;location;lat;lon;timestamp;temperature;humidity
65046;DHT22;54657;52.022;5.534;2023-06-10T00:00:12;22.70;51.00
65046;DHT22;54657;52.022;5.534;2023-06-10T00:02:40;22.70;51.10
65046;DHT22;54657;52.022;5.534;2023-06-10T00:05:06;22.60;51.30
65046;DHT22;54657;52.022;5.534;2023-06-10T00:07:33;22.60;51.30
65046;DHT22;54657;52.022;5.534;2023-06-10T00:10:04;22.70;51.30
65046;DHT22;54657;52.022;5.534;2023-06-10T00:12:31;22.60;51.30
65046;DHT22;54657;52.022;5.534;2023-06-10T00:15:05;22.70;51.30
65046;DHT22;54657;52.022;5.534;2023-06-10T00:17:31;22.60;51.10
65046;DHT22;54657;52.022;5.534;2023-06-10T00:19:58;22.60;51.10
65046;DHT22;54657;52.022;5.534;2023-06-10T00:22:23;22.50;51.30
65046;DHT22;54657;52.022;5.534;2023-06-10T00:24:50;22.60;51.20
65046;DHT22;54657;52.022;5.534;2023-06-10T00:27:16;22.60;52.00
65046;DHT22;54657;52.022;5.534;2023-06-10T00:29:42;22.60;51.20
65046;DHT22;54657;52.022;5.534;2023-06-10T00:32:07;22.50;51.10
65046;DHT22;54657;52.022;5.534;2023-06-10T00:34:33;22.50;51.20
65046;DHT22;54657;52.022;5.534;2023-06-10T00:36:59;22.50;51.20
65046;DHT22;54657;52.022;5.534;2023-06-10T00:39:24;22.50;51.20
65046;DHT22;54657;52.022;5.534;2023-06-10T00:41:50;22.50;51.00
65046;DHT22;54657;52.022;5.534;2023-06-10T00:44:16;22.50;51.00
65046;DHT22;54657;52.022;5.534;2023-06-10T00:46:42;22.40;51.00
65046;DHT22;54657;52.022;5.534;2023-06-10T00:49:08;22.50;51.10
65046;DHT22;54657;52.022;5.534;2023-06-10T00:51:35;22.50;51.00
65046;DHT22;54657;52.022;5.534;2023-06-10T00:54:02;22.50;50.90
65046;DHT22;54657;52.022;5.534;2023-06-10T00:56:28;22.40;50.70
65046;DHT22;54657;52.022;5.534;2023-06-10T00:58:54;22.40;50.70
65046;DHT22;54657;52.022;5.534;2023-06-10T01:01:19;22.40;50.60
65046;DHT22;54657;52.022;5.534;2023-06-10T01:03:45;22.40;50.60
65046;DHT22;54657;52.022;5.534;2023-06-10T01:06:44;22.40;50.70
65046;DHT22;54657;52.022;5.534;2023-06-10T01:11:49;22.40;50.60
65046;DHT22;54657;52.022;5.534;2023-06-10T01:14:17;22.30;50.60
65046;DHT22;54657;52.022;5.534;2023-06-10T01:16:44;22.20;50.60
65046;DHT22;54657;52.022;5.534;2023-06-10T01:19:11;22.20;50.50
65046;DHT22;54657;52.022;5.534;2023-06-10T01:21:38;22.30;50.60
65046;DHT22;54657;52.022;5.534;2023-06-10T01:24:04;22.20;50.60
65046;DHT22;54657;52.022;5.534;2023-06-10T01:26:34;22.20;50.60
65046;DHT22;54657;52.022;5.534;2023-06-10T01:29:11;22.10;51.10
65046;DHT22;54657;52.022;5.534;2023-06-10T01:31:49;22.10;50.70
65046;DHT22;54657;52.022;5.534;2023-06-10T01:34:18;22.10;50.60
65046;DHT22;54657;52.022;5.534;2023-06-10T01:36:48;22.10;50.50
65046;DHT22;54657;52.022;5.534;2023-06-10T01:39:16;22.10;50.60
65046;DHT22;54657;52.022;5.534;2023-06-10T01:41:42;22.10;50.40
65046;DHT22;54657;52.022;5.534;2023-06-10T01:44:09;22.10;50.40
65046;DHT22;54657;52.022;5.534;2023-06-10T01:46:35;22.10;50.30
65046;DHT22;54657;52.022;5.534;2023-06-10T01:49:01;22.00;50.30
65046;DHT22;54657;52.022;5.534;2023-06-10T01:51:26;22.00;50.40
65046;DHT22;54657;52.022;5.534;2023-06-10T01:53:52;22.00;50.40
65046;DHT22;54657;52.022;5.534;2023-06-10T01:56:17;21.90;50.50
65046;DHT22;54657;52.022;5.534;2023-06-10T01:58:45;21.90;50.60
65046;DHT22;54657;52.022;5.534;2023-06-10T02:01:11;21.90;50.50
65046;DHT22;54657;52.022;5.534;2023-06-10T02:03:37;21.80;50.60
65046;DHT22;54657;52.022;5.534;2023-06-10T02:06:03;21.80;50.80
65046;DHT22;54657;52.022;5.534;2023-06-10T02:08:28;21.80;50.70
65046;DHT22;54657;52.022;5.534;2023-06-10T02:10:54;21.70;50.80
65046;DHT22;54657;52.022;5.534;2023-06-10T02:13:19;21.70;50.70
65046;DHT22;54657;52.022;5.534;2023-06-10T02:15:45;21.70;50.80
65046;DHT22;54657;52.022;5.534;2023-06-10T02:18:11;21.70;50.70
65046;DHT22;54657;52.022;5.534;2023-06-10T02:20:40;21.70;50.80
65046;DHT22;54657;52.022;5.534;2023-06-10T02:23:06;21.70;51.00
65046;DHT22;54657;52.022;5.534;2023-06-10T02:25:32;21.70;50.90
65046;DHT22;54657;52.022;5.534;2023-06-10T02:27:57;21.60;51.00
65046;DHT22;54657;52.022;5.534;2023-06-10T02:30:23;21.60;51.10
65046;DHT22;54657;52.022;5.534;2023-06-10T02:32:48;21.50;51.20
65046;DHT22;54657;52.022;5.534;2023-06-10T02:35:16;21.50;51.20
65046;DHT22;54657;52.022;5.534;2023-06-10T02:37:43;21.50;51.30
65046;DHT22;54657;52.022;5.534;2023-06-10T02:40:09;21.50;51.50
65046;DHT22;54657;52.022;5.534;2023-06-10T02:42:35;21.40;51.40
65046;DHT22;54657;52.022;5.534;2023-06-10T02:45:01;21.40;51.40
65046;DHT22;54657;52.022;5.534;2023-06-10T02:47:27;21.40;51.50
65046;DHT22;54657;52.022;5.534;2023-06-10T02:49:52;21.40;51.70
65046;DHT22;54657;52.022;5.534;2023-06-10T02:52:18;21.40;51.70
65046;DHT22;54657;52.022;5.534;2023-06-10T02:54:43;21.40;51.80
65046;DHT22;54657;52.022;5.534;2023-06-10T02:57:10;21.30;51.70
65046;DHT22;54657;52.022;5.534;2023-06-10T02:59:35;21.30;51.70
65046;DHT22;54657;52.022;5.534;2023-06-10T03:02:01;21.40;51.80
65046;DHT22;54657;52.022;5.534;2023-06-10T03:04:27;21.30;51.90
65046;DHT22;54657;52.022;5.534;2023-06-10T03:06:55;21.20;52.00
65046;DHT22;54657;52.022;5.534;2023-06-10T03:09:20;21.20;52.30
65046;DHT22;54657;52.022;5.534;2023-06-10T03:11:46;21.20;52.40
65046;DHT22;54657;52.022;5.534;2023-06-10T03:14:12;21.10;52.40
65046;DHT22;54657;52.022;5.534;2023-06-10T03:16:37;21.10;52.50
65046;DHT22;54657;52.022;5.534;2023-06-10T03:19:09;21.10;52.70
65046;DHT22;54657;52.022;5.534;2023-06-10T03:21:35;21.10;52.80
65046;DHT22;54657;52.022;5.534;2023-06-10T03:24:03;21.10;52.70
65046;DHT22;54657;52.022;5.534;2023-06-10T03:26:28;21.10;52.70
65046;DHT22;54657;52.022;5.534;2023-06-10T03:28:54;21.00;52.80
65046;DHT22;54657;52.022;5.534;2023-06-10T03:31:19;21.00;53.00
65046;DHT22;54657;52.022;5.534;2023-06-10T03:33:45;20.90;53.20
65046;DHT22;54657;52.022;5.534;2023-06-10T03:36:11;20.90;53.20
65046;DHT22;54657;52.022;5.534;2023-06-10T03:38:36;20.90;53.20
65046;DHT22;54657;52.022;5.534;2023-06-10T03:41:02;20.90;53.30
65046;DHT22;54657;52.022;5.534;2023-06-10T03:43:28;20.80;53.40
65046;DHT22;54657;52.022;5.534;2023-06-10T03:45:53;20.90;53.40
65046;DHT22;54657;52.022;5.534;2023-06-10T03:48:19;20.80;53.40
65046;DHT22;54657;52.022;5.534;2023-06-10T03:50:45;20.90;53.40
65046;DHT22;54657;52.022;5.534;2023-06-10T03:53:12;20.80;53.50
65046;DHT22;54657;52.022;5.534;2023-06-10T03:55:38;20.80;53.70
65046;DHT22;54657;52.022;5.534;2023-06-10T03:58:04;20.80;54.10
65046;DHT22;54657;52.022;5.534;2023-06-10T04:00:29;20.70;54.10
65046;DHT22;54657;52.022;5.534;2023-06-10T04:02:55;20.70;54.00
65046;DHT22;54657;52.022;5.534;2023-06-10T04:05:23;20.70;53.90
65046;DHT22;54657;52.022;5.534;2023-06-10T04:07:49;20.70;54.00
65046;DHT22;54657;52.022;5.534;2023-06-10T04:10:15;20.70;54.00
65046;DHT22;54657;52.022;5.534;2023-06-10T04:12:41;20.70;54.30
65046;DHT22;54657;52.022;5.534;2023-06-10T04:15:07;20.70;54.20
65046;DHT22;54657;52.022;5.534;2023-06-10T04:17:34;20.80;54.30
65046;DHT22;54657;52.022;5.534;2023-06-10T04:19:59;20.80;54.40
65046;DHT22;54657;52.022;5.534;2023-06-10T04:22:26;20.80;54.40
65046;DHT22;54657;52.022;5.534;2023-06-10T04:24:52;20.80;54.30
65046;DHT22;54657;52.022;5.534;2023-06-10T04:27:17;20.80;54.40
65046;DHT22;54657;52.022;5.534;2023-06-10T04:29:43;20.80;54.50
65046;DHT22;54657;52.022;5.534;2023-06-10T04:32:09;20.90;54.80
65046;DHT22;54657;52.022;5.534;2023-06-10T04:34:34;20.90;54.70
65046;DHT22;54657;52.022;5.534;2023-06-10T04:37:00;21.00;54.70
65046;DHT22;54657;52.022;5.534;2023-06-10T04:39:26;21.10;54.80
65046;DHT22;54657;52.022;5.534;2023-06-10T04:41:51;21.10;54.60
65046;DHT22;54657;52.022;5.534;2023-06-10T04:44:17;21.30;54.50
65046;DHT22;54657;52.022;5.534;2023-06-10T04:46:44;21.40;54.40
65046;DHT22;54657;52.022;5.534;2023-06-10T04:49:09;21.60;54.30
65046;DHT22;54657;52.022;5.534;2023-06-10T04:51:35;21.60;54.10
65046;DHT22;54657;52.022;5.534;2023-06-10T04:54:01;21.70;54.20
65046;DHT22;54657;52.022;5.534;2023-06-10T04:56:30;21.70;54.20
65046;DHT22;54657;52.022;5.534;2023-06-10T04:58:56;21.80;54.20
65046;DHT22;54657;52.022;5.534;2023-06-10T05:01:22;21.70;54.00
65046;DHT22;54657;52.022;5.534;2023-06-10T05:03:48;21.70;54.40
65046;DHT22;54657;52.022;5.534;2023-06-10T05:06:14;21.70;54.80
65046;DHT22;54657;52.022;5.534;2023-06-10T05:08:39;21.70;54.50
65046;DHT22;54657;52.022;5.534;2023-06-10T05:11:05;21.70;54.60
65046;DHT22;54657;52.022;5.534;2023-06-10T05:13:31;21.70;54.60
65046;DHT22;54657;52.022;5.534;2023-06-10T05:15:58;21.70;54.70
65046;DHT22;54657;52.022;5.534;2023-06-10T05:18:23;21.60;54.90
65046;DHT22;54657;52.022;5.534;2023-06-10T05:20:49;21.60;55.00
65046;DHT22;54657;52.022;5.534;2023-06-10T05:23:15;21.60;55.10
65046;DHT22;54657;52.022;5.534;2023-06-10T05:25:40;21.60;55.10
65046;DHT22;54657;52.022;5.534;2023-06-10T05:28:07;21.60;55.10
65046;DHT22;54657;52.022;5.534;2023-06-10T05:30:35;21.60;55.10
65046;DHT22;54657;52.022;5.534;2023-06-10T05:33:03;21.70;55.30
65046;DHT22;54657;52.022;5.534;2023-06-10T05:35:28;21.70;55.40
65046;DHT22;54657;52.022;5.534;2023-06-10T05:37:54;21.70;55.20
65046;DHT22;54657;52.022;5.534;2023-06-10T05:40:20;21.70;55.30
65046;DHT22;54657;52.022;5.534;2023-06-10T05:42:45;21.80;55.50
65046;DHT22;54657;52.022;5.534;2023-06-10T05:45:11;21.80;55.40
65046;DHT22;54657;52.022;5.534;2023-06-10T05:47:36;21.80;55.30
65046;DHT22;54657;52.022;5.534;2023-06-10T05:50:02;21.80;55.30
65046;DHT22;54657;52.022;5.534;2023-06-10T05:52:35;21.90;55.20
65046;DHT22;54657;52.022;5.534;2023-06-10T05:55:04;21.90;55.60
65046;DHT22;54657;52.022;5.534;2023-06-10T05:57:30;21.80;55.40
65046;DHT22;54657;52.022;5.534;2023-06-10T05:59:56;21.80;55.50
65046;DHT22;54657;52.022;5.534;2023-06-10T06:02:22;21.80;55.50
65046;DHT22;54657;52.022;5.534;2023-06-10T06:04:48;21.90;55.50
65046;DHT22;54657;52.022;5.534;2023-06-10T06:07:13;22.00;55.40
65046;DHT22;54657;52.022;5.534;2023-06-10T06:09:39;22.00;55.40
65046;DHT22;54657;52.022;5.534;2023-06-10T06:12:05;22.10;55.30
65046;DHT22;54657;52.022;5.534;2023-06-10T06:14:33;22.10;55.40
65046;DHT22;54657;52.022;5.534;2023-06-10T06:17:02;22.20;55.30
65046;DHT22;54657;52.022;5.534;2023-06-10T06:19:28;22.20;55.20
65046;DHT22;54657;52.022;5.534;2023-06-10T06:21:53;22.30;55.30
65046;DHT22;54657;52.022;5.534;2023-06-10T06:24:19;22.20;55.30
65046;DHT22;54657;52.022;5.534;2023-06-10T06:26:45;22.20;55.10
65046;DHT22;54657;52.022;5.534;2023-06-10T06:29:10;22.30;55.20
65046;DHT22;54657;52.022;5.534;2023-06-10T06:31:36;22.40;55.30
65046;DHT22;54657;52.022;5.534;2023-06-10T06:34:02;22.50;55.10
65046;DHT22;54657;52.022;5.534;2023-06-10T06:36:27;22.50;55.00
65046;DHT22;54657;52.022;5.534;2023-06-10T06:38:53;22.60;55.00
65046;DHT22;54657;52.022;5.534;2023-06-10T06:41:19;22.80;54.80
65046;DHT22;54657;52.022;5.534;2023-06-10T06:43:44;22.90;54.60
65046;DHT22;54657;52.022;5.534;2023-06-10T06:46:10;23.10;54.50
65046;DHT22;54657;52.022;5.534;2023-06-10T06:48:36;23.20;54.30
65046;DHT22;54657;52.022;5.534;2023-06-10T06:51:01;23.40;54.10
65046;DHT22;54657;52.022;5.534;2023-06-10T06:53:27;23.50;53.70
65046;DHT22;54657;52.022;5.534;2023-06-10T06:55:52;23.50;53.70
65046;DHT22;54657;52.022;5.534;2023-06-10T06:58:18;23.60;53.60
65046;DHT22;54657;52.022;5.534;2023-06-10T07:00:44;23.70;53.50
65046;DHT22;54657;52.022;5.534;2023-06-10T07:03:10;23.80;53.20
65046;DHT22;54657;52.022;5.534;2023-06-10T07:05:36;23.90;53.20
65046;DHT22;54657;52.022;5.534;2023-06-10T07:08:02;24.00;54.00
65046;DHT22;54657;52.022;5.534;2023-06-10T07:10:28;24.10;52.90
65046;DHT22;54657;52.022;5.534;2023-06-10T07:12:54;24.20;52.80
65046;DHT22;54657;52.022;5.534;2023-06-10T07:15:20;24.20;52.70
65046;DHT22;54657;52.022;5.534;2023-06-10T07:17:45;24.30;52.80
65046;DHT22;54657;52.022;5.534;2023-06-10T07:20:11;24.50;52.60
65046;DHT22;54657;52.022;5.534;2023-06-10T07:22:37;24.60;52.20
65046;DHT22;54657;52.022;5.534;2023-06-10T07:25:04;24.70;52.20
65046;DHT22;54657;52.022;5.534;2023-06-10T07:27:30;24.60;52.10
65046;DHT22;54657;52.022;5.534;2023-06-10T07:29:56;24.70;52.10
65046;DHT22;54657;52.022;5.534;2023-06-10T07:32:21;24.80;51.90
65046;DHT22;54657;52.022;5.534;2023-06-10T07:34:49;24.90;51.70
65046;DHT22;54657;52.022;5.534;2023-06-10T07:37:15;25.00;51.70
65046;DHT22;54657;52.022;5.534;2023-06-10T07:39:40;25.10;51.50
65046;DHT22;54657;52.022;5.534;2023-06-10T07:42:06;25.20;51.40
65046;DHT22;54657;52.022;5.534;2023-06-10T07:44:32;25.20;51.40
65046;DHT22;54657;52.022;5.534;2023-06-10T07:46:58;25.30;51.30
65046;DHT22;54657;52.022;5.534;2023-06-10T07:49:23;25.40;51.30
65046;DHT22;54657;52.022;5.534;2023-06-10T07:51:50;25.50;51.30
65046;DHT22;54657;52.022;5.534;2023-06-10T07:54:16;25.70;51.10
65046;DHT22;54657;52.022;5.534;2023-06-10T07:56:41;25.70;50.70
65046;DHT22;54657;52.022;5.534;2023-06-10T07:59:07;25.80;50.60
65046;DHT22;54657;52.022;5.534;2023-06-10T08:01:33;25.80;50.70
65046;DHT22;54657;52.022;5.534;2023-06-10T08:03:58;26.00;50.80
65046;DHT22;54657;52.022;5.534;2023-06-10T08:06:24;26.10;50.40
65046;DHT22;54657;52.022;5.534;2023-06-10T08:08:50;26.30;50.30
65046;DHT22;54657;52.022;5.534;2023-06-10T08:11:15;26.30;50.20
65046;DHT22;54657;52.022;5.534;2023-06-10T08:13:41;26.40;50.00
65046;DHT22;54657;52.022;5.534;2023-06-10T08:16:06;26.40;50.00
65046;DHT22;54657;52.022;5.534;2023-06-10T08:18:32;26.40;49.80
65046;DHT22;54657;52.022;5.534;2023-06-10T08:20:59;26.40;49.50
65046;DHT22;54657;52.022;5.534;2023-06-10T08:23:24;26.30;49.60
65046;DHT22;54657;52.022;5.534;2023-06-10T08:25:50;26.30;49.70
65046;DHT22;54657;52.022;5.534;2023-06-10T08:28:16;26.30;49.60
65046;DHT22;54657;52.022;5.534;2023-06-10T08:30:42;26.40;49.40
65046;DHT22;54657;52.022;5.534;2023-06-10T08:33:08;26.40;49.40
65046;DHT22;54657;52.022;5.534;2023-06-10T08:35:33;26.50;49.40
65046;DHT22;54657;52.022;5.534;2023-06-10T08:37:59;26.60;49.20
65046;DHT22;54657;52.022;5.534;2023-06-10T08:40:25;26.70;49.10
65046;DHT22;54657;52.022;5.534;2023-06-10T08:45:23;26.90;48.80
65046;DHT22;54657;52.022;5.534;2023-06-10T08:47:50;27.00;48.50
65046;DHT22;54657;52.022;5.534;2023-06-10T08:50:19;27.00;48.50
65046;DHT22;54657;52.022;5.534;2023-06-10T08:52:48;27.10;48.30
65046;DHT22;54657;52.022;5.534;2023-06-10T08:55:18;27.10;48.00
65046;DHT22;54657;52.022;5.534;2023-06-10T08:57:45;27.10;48.30
65046;DHT22;54657;52.022;5.534;2023-06-10T09:00:13;27.20;48.30
65046;DHT22;54657;52.022;5.534;2023-06-10T09:02:39;27.30;48.00
65046;DHT22;54657;52.022;5.534;2023-06-10T09:05:05;27.20;47.80
65046;DHT22;54657;52.022;5.534;2023-06-10T09:07:32;27.30;47.90
65046;DHT22;54657;52.022;5.534;2023-06-10T09:10:01;27.30;48.10
65046;DHT22;54657;52.022;5.534;2023-06-10T09:12:29;27.40;48.10
65046;DHT22;54657;52.022;5.534;2023-06-10T09:14:55;27.50;48.70
65046;DHT22;54657;52.022;5.534;2023-06-10T09:17:21;27.60;47.80
65046;DHT22;54657;52.022;5.534;2023-06-10T09:19:47;27.70;47.50
65046;DHT22;54657;52.022;5.534;2023-06-10T09:22:14;27.70;47.50
65046;DHT22;54657;52.022;5.534;2023-06-10T09:24:40;27.70;47.40
65046;DHT22;54657;52.022;5.534;2023-06-10T09:27:08;27.70;47.40
65046;DHT22;54657;52.022;5.534;2023-06-10T09:29:53;27.80;47.30
65046;DHT22;54657;52.022;5.534;2023-06-10T09:32:19;27.90;46.90
65046;DHT22;54657;52.022;5.534;2023-06-10T09:34:46;27.90;47.00
65046;DHT22;54657;52.022;5.534;2023-06-10T09:37:12;28.00;47.10
65046;DHT22;54657;52.022;5.534;2023-06-10T09:39:39;28.00;46.70
65046;DHT22;54657;52.022;5.534;2023-06-10T09:42:18;28.10;46.70
65046;DHT22;54657;52.022;5.534;2023-06-10T09:44:51;28.10;45.30
65046;DHT22;54657;52.022;5.534;2023-06-10T09:47:23;28.20;46.10
65046;DHT22;54657;52.022;5.534;2023-06-10T09:49:50;28.30;45.80
65046;DHT22;54657;52.022;5.534;2023-06-10T09:52:26;28.40;46.00
65046;DHT22;54657;52.022;5.534;2023-06-10T09:54:53;28.40;43.50
65046;DHT22;54657;52.022;5.534;2023-06-10T09:57:22;28.30;45.80
65046;DHT22;54657;52.022;5.534;2023-06-10T09:59:48;28.30;45.30
65046;DHT22;54657;52.022;5.534;2023-06-10T10:02:18;28.30;45.50
65046;DHT22;54657;52.022;5.534;2023-06-10T10:04:46;28.40;45.00
65046;DHT22;54657;52.022;5.534;2023-06-10T10:07:13;28.40;45.00
65046;DHT22;54657;52.022;5.534;2023-06-10T10:09:40;28.50;45.20
65046;DHT22;54657;52.022;5.534;2023-06-10T10:12:11;28.60;44.10
65046;DHT22;54657;52.022;5.534;2023-06-10T10:14:38;28.50;43.80
65046;DHT22;54657;52.022;5.534;2023-06-10T10:17:09;28.60;44.50
65046;DHT22;54657;52.022;5.534;2023-06-10T10:19:43;28.80;44.30
65046;DHT22;54657;52.022;5.534;2023-06-10T10:22:14;28.80;43.00
65046;DHT22;54657;52.022;5.534;2023-06-10T10:24:50;28.90;42.60
65046;DHT22;54657;52.022;5.534;2023-06-10T10:30:06;28.80;42.00
65046;DHT22;54657;52.022;5.534;2023-06-10T10:32:40;28.90;43.60
65046;DHT22;54657;52.022;5.534;2023-06-10T10:35:21;29.00;42.70
65046;DHT22;54657;52.022;5.534;2023-06-10T10:37:52;29.00;43.40
65046;DHT22;54657;52.022;5.534;2023-06-10T10:40:20;29.10;42.80
65046;DHT22;54657;52.022;5.534;2023-06-10T10:42:48;29.00;42.80
65046;DHT22;54657;52.022;5.534;2023-06-10T10:45:14;29.10;42.50
65046;DHT22;54657;52.022;5.534;2023-06-10T10:47:40;29.10;42.90
65046;DHT22;54657;52.022;5.534;2023-06-10T10:50:16;29.20;42.80
65046;DHT22;54657;52.022;5.534;2023-06-10T10:52:55;29.40;41.30
65046;DHT22;54657;52.022;5.534;2023-06-10T10:55:22;29.40;42.00
65046;DHT22;54657;52.022;5.534;2023-06-10T10:58:05;29.50;42.50
65046;DHT22;54657;52.022;5.534;2023-06-10T11:00:36;29.60;40.60
65046;DHT22;54657;52.022;5.534;2023-06-10T11:05:40;29.60;37.90
65046;DHT22;54657;52.022;5.534;2023-06-10T11:08:08;29.60;41.50
65046;DHT22;54657;52.022;5.534;2023-06-10T11:10:35;29.60;42.70
65046;DHT22;54657;52.022;5.534;2023-06-10T11:13:09;29.70;41.60
65046;DHT22;54657;52.022;5.534;2023-06-10T11:15:45;29.80;41.50
65046;DHT22;54657;52.022;5.534;2023-06-10T11:18:22;29.90;41.30
65046;DHT22;54657;52.022;5.534;2023-06-10T11:20:52;29.90;40.80
65046;DHT22;54657;52.022;5.534;2023-06-10T11:31:24;30.10;37.50
65046;DHT22;54657;52.022;5.534;2023-06-10T11:33:58;30.10;40.00
65046;DHT22;54657;52.022;5.534;2023-06-10T11:36:25;30.10;40.40
65046;DHT22;54657;52.022;5.534;2023-06-10T11:39:02;30.20;40.70
65046;DHT22;54657;52.022;5.534;2023-06-10T11:41:29;30.30;39.10
65046;DHT22;54657;52.022;5.534;2023-06-10T11:43:59;30.30;40.50
65046;DHT22;54657;52.022;5.534;2023-06-10T11:46:26;30.30;40.30
65046;DHT22;54657;52.022;5.534;2023-06-10T11:48:58;30.20;39.70
65046;DHT22;54657;52.022;5.534;2023-06-10T11:51:31;30.20;39.60
65046;DHT22;54657;52.022;5.534;2023-06-10T11:53:57;30.20;39.20
65046;DHT22;54657;52.022;5.534;2023-06-10T11:56:24;30.10;39.80
65046;DHT22;54657;52.022;5.534;2023-06-10T11:58:56;30.10;39.60
65046;DHT22;54657;52.022;5.534;2023-06-10T12:01:23;30.20;39.30
65046;DHT22;54657;52.022;5.534;2023-06-10T12:03:57;30.20;36.40
65046;DHT22;54657;52.022;5.534;2023-06-10T12:06:23;30.20;38.00
65046;DHT22;54657;52.022;5.534;2023-06-10T12:08:49;30.30;39.60
65046;DHT22;54657;52.022;5.534;2023-06-10T12:11:15;30.30;39.30
65046;DHT22;54657;52.022;5.534;2023-06-10T12:13:49;30.30;39.20
65046;DHT22;54657;52.022;5.534;2023-06-10T12:16:15;30.40;37.00
65046;DHT22;54657;52.022;5.534;2023-06-10T12:18:43;30.40;38.90
65046;DHT22;54657;52.022;5.534;2023-06-10T12:21:20;30.40;38.90
65046;DHT22;54657;52.022;5.534;2023-06-10T12:24:04;30.50;37.50
65046;DHT22;54657;52.022;5.534;2023-06-10T12:26:41;30.60;37.90
65046;DHT22;54657;52.022;5.534;2023-06-10T12:32:02;30.70;37.30
65046;DHT22;54657;52.022;5.534;2023-06-10T12:34:36;30.60;37.10
65046;DHT22;54657;52.022;5.534;2023-06-10T12:37:05;30.60;37.40
65046;DHT22;54657;52.022;5.534;2023-06-10T12:39:32;30.70;38.40
65046;DHT22;54657;52.022;5.534;2023-06-10T12:41:58;30.80;38.30
65046;DHT22;54657;52.022;5.534;2023-06-10T12:44:35;30.80;38.20
65046;DHT22;54657;52.022;5.534;2023-06-10T12:47:07;30.80;37.20
65046;DHT22;54657;52.022;5.534;2023-06-10T12:49:33;30.80;36.30
65046;DHT22;54657;52.022;5.534;2023-06-10T12:52:00;30.80;38.10
65046;DHT22;54657;52.022;5.534;2023-06-10T12:54:26;30.80;38.00
65046;DHT22;54657;52.022;5.534;2023-06-10T12:56:52;30.90;37.90
65046;DHT22;54657;52.022;5.534;2023-06-10T12:59:18;30.80;37.70
65046;DHT22;54657;52.022;5.534;2023-06-10T13:01:49;30.80;37.70
65046;DHT22;54657;52.022;5.534;2023-06-10T13:04:16;30.80;37.50
65046;DHT22;54657;52.022;5.534;2023-06-10T13:06:42;30.70;37.50
65046;DHT22;54657;52.022;5.534;2023-06-10T13:09:08;30.70;37.80
65046;DHT22;54657;52.022;5.534;2023-06-10T13:11:34;30.80;37.60
65046;DHT22;54657;52.022;5.534;2023-06-10T13:14:01;30.80;37.70
65046;DHT22;54657;52.022;5.534;2023-06-10T13:16:28;30.90;37.70
65046;DHT22;54657;52.022;5.534;2023-06-10T13:18:54;30.90;37.50
65046;DHT22;54657;52.022;5.534;2023-06-10T13:21:19;31.00;38.50
65046;DHT22;54657;52.022;5.534;2023-06-10T13:23:46;31.00;37.20
65046;DHT22;54657;52.022;5.534;2023-06-10T13:26:14;31.00;36.90
65046;DHT22;54657;52.022;5.534;2023-06-10T13:28:40;31.00;37.00
65046;DHT22;54657;52.022;5.534;2023-06-10T13:31:05;30.90;37.10
65046;DHT22;54657;52.022;5.534;2023-06-10T13:33:31;30.90;36.80
65046;DHT22;54657;52.022;5.534;2023-06-10T13:35:56;30.80;37.10
65046;DHT22;54657;52.022;5.534;2023-06-10T13:38:23;30.70;37.10
65046;DHT22;54657;52.022;5.534;2023-06-10T13:40:49;30.80;37.40
65046;DHT22;54657;52.022;5.534;2023-06-10T13:43:16;30.80;37.40
65046;DHT22;54657;52.022;5.534;2023-06-10T13:45:42;30.90;37.10
65046;DHT22;54657;52.022;5.534;2023-06-10T13:48:08;30.90;37.10
65046;DHT22;54657;52.022;5.534;2023-06-10T13:50:33;30.90;37.10
65046;DHT22;54657;52.022;5.534;2023-06-10T13:52:59;30.90;37.10
65046;DHT22;54657;52.022;5.534;2023-06-10T13:55:25;30.90;37.20
65046;DHT22;54657;52.022;5.534;2023-06-10T13:57:51;31.00;37.00
65046;DHT22;54657;52.022;5.534;2023-06-10T14:00:17;31.00;36.80
65046;DHT22;54657;52.022;5.534;2023-06-10T14:02:42;31.00;36.70
65046;DHT22;54657;52.022;5.534;2023-06-10T14:05:08;31.00;36.60
65046;DHT22;54657;52.022;5.534;2023-06-10T14:07:34;31.00;36.80
65046;DHT22;54657;52.022;5.534;2023-06-10T14:10:00;31.00;36.30
65046;DHT22;54657;52.022;5.534;2023-06-10T14:12:26;31.00;36.50
65046;DHT22;54657;52.022;5.534;2023-06-10T14:14:51;31.00;36.10
65046;DHT22;54657;52.022;5.534;2023-06-10T14:17:17;30.90;36.00
65046;DHT22;54657;52.022;5.534;2023-06-10T14:19:43;30.80;36.20
65046;DHT22;54657;52.022;5.534;2023-06-10T14:22:08;30.90;36.20
65046;DHT22;54657;52.022;5.534;2023-06-10T14:24:35;30.90;36.30
65046;DHT22;54657;52.022;5.534;2023-06-10T14:27:01;31.00;36.40
65046;DHT22;54657;52.022;5.534;2023-06-10T14:29:27;31.00;36.40
65046;DHT22;54657;52.022;5.534;2023-06-10T14:31:54;31.10;36.10
65046;DHT22;54657;52.022;5.534;2023-06-10T14:34:20;31.10;36.20
65046;DHT22;54657;52.022;5.534;2023-06-10T14:36:47;31.10;36.40
65046;DHT22;54657;52.022;5.534;2023-06-10T14:39:12;31.20;36.10
65046;DHT22;54657;52.022;5.534;2023-06-10T14:41:38;31.20;36.10
65046;DHT22;54657;52.022;5.534;2023-06-10T14:44:03;31.20;36.00
65046;DHT22;54657;52.022;5.534;2023-06-10T14:46:29;31.20;36.00
65046;DHT22;54657;52.022;5.534;2023-06-10T14:48:55;31.10;36.10
65046;DHT22;54657;52.022;5.534;2023-06-10T14:51:20;31.10;35.90
65046;DHT22;54657;52.022;5.534;2023-06-10T14:53:46;31.10;35.80
65046;DHT22;54657;52.022;5.534;2023-06-10T14:56:12;31.10;36.00
65046;DHT22;54657;52.022;5.534;2023-06-10T14:58:38;31.10;35.90
65046;DHT22;54657;52.022;5.534;2023-06-10T15:01:03;31.10;35.90
65046;DHT22;54657;52.022;5.534;2023-06-10T15:03:29;31.10;35.90
65046;DHT22;54657;52.022;5.534;2023-06-10T15:05:55;31.20;35.80
65046;DHT22;54657;52.022;5.534;2023-06-10T15:08:20;31.10;35.80
65046;DHT22;54657;52.022;5.534;2023-06-10T15:10:46;31.20;35.80
65046;DHT22;54657;52.022;5.534;2023-06-10T15:13:13;31.20;35.80
65046;DHT22;54657;52.022;5.534;2023-06-10T15:15:39;31.10;35.20
65046;DHT22;54657;52.022;5.534;2023-06-10T15:18:05;31.00;35.50
65046;DHT22;54657;52.022;5.534;2023-06-10T15:20:30;30.90;35.20
65046;DHT22;54657;52.022;5.534;2023-06-10T15:22:56;30.80;35.20
65046;DHT22;54657;52.022;5.534;2023-06-10T15:25:22;30.80;35.10
65046;DHT22;54657;52.022;5.534;2023-06-10T15:27:47;30.70;35.10
65046;DHT22;54657;52.022;5.534;2023-06-10T15:30:13;30.70;35.00
65046;DHT22;54657;52.022;5.534;2023-06-10T15:32:39;30.70;35.10
65046;DHT22;54657;52.022;5.534;2023-06-10T15:35:05;30.60;35.10
65046;DHT22;54657;52.022;5.534;2023-06-10T15:37:33;30.70;35.30
65046;DHT22;54657;52.022;5.534;2023-06-10T15:40:02;30.70;35.40
65046;DHT22;54657;52.022;5.534;2023-06-10T15:42:27;30.60;35.30
65046;DHT22;54657;52.022;5.534;2023-06-10T15:44:53;30.70;35.50
65046;DHT22;54657;52.022;5.534;2023-06-10T15:47:19;30.70;35.40
65046;DHT22;54657;52.022;5.534;2023-06-10T15:49:45;30.70;35.50